Royal Oak Township, Michigan
Current Conditions -  °F | °C
As of 4:53 PM on Friday 31 Oct 2014 (Local Time) from KDET Reporting Station
Light Rain Light Rain  
Wind Chill: 33°   Ceiling: 1600
Heat Index: 42°   Visibility: 10mi
Dew Point: 36°   Wind: 21mph
Humidity: 79%   Direction: 10°N
Pressure: 29.92"   Gusts: 29mph
Location:  42.4581°N, 83.135°W
Report Text: KDET 312053Z 01018G25KT 10SM -RA BKN016 OVC024 06/02 A2992 RMK AO2 SLP134 P0003 60005 T00560022 53015
Loading
Personal Weather Stations






























Interactive Weather Map
Tropical Storm Tracking
New forecast layout! Learn more

10-Day Weather Forecast

Advertisements
Track Severe Weather on mobile